KRPJ

Rochelle Municipal-Koritz Field Airport

Rochelle, Illinois, USA
METAR KRPJ 181515Z AUTO 22017KT 10SM CLR M07/M11 A3012 RMK AO2 T10711108
Observed Flight Rules
Jan-18 @ 15:15 UTC (20 minutes ago) Visual Flight Rules
Wind Visibility Clouds
220° at 17 knots 10 miles
  • Clear skies
Temperatures Readings
Current -7°C / 19°F
Dewpoint -11°C / 12°F
Humidity 73%
Altimeter 30.12" Hg
Pressure 1020 hPa
Elevation 238
METAR KRPJ 181515Z AUTO 22017KT 10SM CLR M07/M11 A3012 RMK AO2 T10711108
Observed Flight Rules
Jan-18 @ 15:15 UTC
(20 minutes ago)
VFR
Wind Visibility
220° at 17 knots 10 miles
Clouds
  • Clear skies
Temperature Dewpoint
-7°C / 19°F -11°C / 12°F
Humidity Altimeter Pressure
73% 30.12" Hg 1020 hPa